Time;durP1;ratioP1;P1;durP2;ratioP2;P2;SDS_P1;SDS_P2;PMS_P1;PMS_P2;Temp;Humidity;BMP_temperature;BMP_pressure;BME280_temperature;BME280_humidity;BME280_pressure;Samples;Min_cycle;Max_cycle;Signal;HPM_P1;HPM_P2
2023/03/07 00:01:28;;;;;;;41.20;20.60;;;;;;;15.04;30.58;99180.83;108019;1254;59724;-66
2023/03/07 00:03:56;;;;;;;38.80;19.00;;;;;;;15.02;30.55;99176.04;108029;1253;74777;-65
2023/03/07 00:06:25;;;;;;;37.10;19.40;;;;;;;15.16;30.20;99169.21;108046;1253;70335;-67
2023/03/07 00:08:55;;;;;;;40.20;21.20;;;;;;;15.19;30.28;99168.14;108028;1254;71544;-66
2023/03/07 00:11:28;;;;;;;40.50;19.30;;;;;;;15.18;30.39;99162.74;108064;1254;62157;-66
2023/03/07 00:13:56;;;;;;;41.00;19.60;;;;;;;15.39;30.19;99159.09;108088;1254;61558;-67
2023/03/07 00:16:24;;;;;;;42.70;22.00;;;;;;;15.47;30.11;99155.83;108137;1253;71712;-67
2023/03/07 00:18:53;;;;;;;42.10;21.50;;;;;;;15.32;30.07;99154.81;108079;1253;71624;-66
2023/03/07 00:21:22;;;;;;;44.60;21.40;;;;;;;15.33;30.13;99152.83;108124;1253;73947;-66
2023/03/07 00:23:51;;;;;;;42.70;21.20;;;;;;;15.38;30.10;99149.59;108162;1254;61874;-67
2023/03/07 00:26:20;;;;;;;43.00;21.60;;;;;;;15.28;30.26;99144.98;108129;1253;61239;-66
2023/03/07 00:28:50;;;;;;;46.30;21.90;;;;;;;14.63;31.24;99137.70;108087;1254;74187;-66
2023/03/07 00:31:19;;;;;;;47.70;22.30;;;;;;;14.78;31.22;99141.46;108091;1253;70469;-66
2023/03/07 00:33:49;;;;;;;44.50;20.80;;;;;;;14.43;31.83;99134.73;108074;1254;73661;-66
2023/03/07 00:36:20;;;;;;;32.60;16.40;;;;;;;14.39;32.05;99132.83;108031;1254;61213;-66
2023/03/07 00:38:48;;;;;;;44.90;19.70;;;;;;;14.80;31.65;99125.95;108058;1254;61839;-66
2023/03/07 00:41:21;;;;;;;48.30;22.40;;;;;;;14.84;31.62;99128.54;108044;1254;72343;-66
2023/03/07 00:43:49;;;;;;;42.40;21.70;;;;;;;15.59;30.70;99118.38;108036;1253;70893;-66
2023/03/07 00:46:18;;;;;;;45.80;20.60;;;;;;;15.39;30.89;99116.80;108054;1254;74091;-67
2023/03/07 00:48:47;;;;;;;40.40;21.70;;;;;;;15.13;31.20;99119.41;108062;1254;61862;-66
2023/03/07 00:51:17;;;;;;;45.00;19.20;;;;;;;15.54;30.73;99113.05;108058;1254;61405;-66
2023/03/07 00:53:46;;;;;;;36.40;15.50;;;;;;;15.49;30.86;99106.33;108116;1254;74291;-66
2023/03/07 00:56:16;;;;;;;40.50;20.40;;;;;;;15.61;30.78;99106.17;108101;1253;70634;-67
2023/03/07 00:58:44;;;;;;;39.00;18.10;;;;;;;15.69;30.64;99102.23;108031;1254;71199;-67
2023/03/07 01:01:14;;;;;;;39.70;19.20;;;;;;;15.16;31.41;99102.86;108015;1254;62171;-66
2023/03/07 01:03:43;;;;;;;36.30;19.50;;;;;;;15.80;30.49;99100.73;108047;1254;60078;-67
2023/03/07 01:06:14;;;;;;;40.90;20.80;;;;;;;15.35;30.95;99095.84;108065;1257;74141;-66
2023/03/07 01:08:43;;;;;;;43.30;21.30;;;;;;;15.25;31.18;99094.43;108067;1254;71120;-67
2023/03/07 01:11:13;;;;;;;43.90;22.20;;;;;;;15.58;30.72;99090.30;108035;1254;72842;-67
2023/03/07 01:13:41;;;;;;;33.20;16.40;;;;;;;15.38;31.10;99091.56;108065;1253;61936;-66
2023/03/07 01:16:15;;;;;;;45.30;21.40;;;;;;;15.85;30.43;99094.17;108110;1254;61122;-66
2023/03/07 01:18:43;;;;;;;42.00;21.00;;;;;;;16.00;30.15;99089.27;108073;1254;73143;-65
2023/03/07 01:21:26;;;;;;;43.30;20.90;;;;;;;16.10;30.08;99086.61;108089;1258;70654;-64
2023/03/07 01:23:54;;;;;;;42.90;21.60;;;;;;;16.14;29.93;99079.05;108097;1254;73554;-65
2023/03/07 01:26:24;;;;;;;39.40;18.00;;;;;;;16.00;30.13;99076.54;107938;1254;62181;-65
2023/03/07 01:28:54;;;;;;;45.10;20.50;;;;;;;16.07;29.99;99072.98;108051;1254;59981;-66
2023/03/07 01:31:22;;;;;;;42.30;20.40;;;;;;;16.23;29.61;99070.40;108058;1254;73936;-68
2023/03/07 01:33:52;;;;;;;40.30;18.80;;;;;;;15.84;30.17;99069.29;108054;1254;71572;-66
2023/03/07 01:36:24;;;;;;;42.00;21.20;;;;;;;15.27;30.86;99071.13;107928;1254;71196;-67
2023/03/07 01:38:53;;;;;;;45.00;22.10;;;;;;;15.73;30.29;99066.70;107948;1254;60388;-67
2023/03/07 01:41:22;;;;;;;41.80;20.60;;;;;;;15.76;30.31;99065.62;108003;1254;60548;-66
2023/03/07 01:43:52;;;;;;;45.00;22.00;;;;;;;16.04;29.87;99062.45;107893;1254;72035;-66
2023/03/07 01:46:36;;;;;;;38.80;19.80;;;;;;;16.43;29.33;99055.36;107957;1254;71314;-66
2023/03/07 01:49:11;;;;;;;37.40;19.80;;;;;;;16.37;29.25;99052.11;107951;1254;73900;-66
2023/03/07 01:51:42;;;;;;;44.10;21.50;;;;;;;16.06;29.65;99055.93;107979;1254;60435;-65
2023/03/07 01:54:11;;;;;;;36.20;18.80;;;;;;;15.92;29.93;99053.41;108070;1254;61546;-66
2023/03/07 01:56:40;;;;;;;45.40;21.80;;;;;;;15.99;29.89;99053.09;108095;1254;72715;-67
2023/03/07 01:59:09;;;;;;;40.40;20.20;;;;;;;16.41;29.23;99043.64;107855;1254;71097;-66
2023/03/07 02:01:37;;;;;;;42.30;20.70;;;;;;;16.23;29.43;99043.76;107853;1255;73547;-65
2023/03/07 02:04:12;;;;;;;45.60;20.70;;;;;;;15.69;30.06;99044.38;108002;1254;62343;-66
2023/03/07 02:06:41;;;;;;;40.90;19.10;;;;;;;15.96;29.77;99039.84;107971;1254;61492;-66
2023/03/07 02:09:17;;;;;;;38.10;19.50;;;;;;;15.78;29.96;99038.55;108073;1254;73949;-66
2023/03/07 02:11:46;;;;;;;40.20;20.50;;;;;;;15.84;29.79;99037.44;108078;1254;70348;-65
2023/03/07 02:14:14;;;;;;;38.90;18.30;;;;;;;15.85;29.84;99033.95;107846;1254;73794;-64
2023/03/07 02:16:42;;;;;;;41.50;19.90;;;;;;;16.22;29.39;99033.60;108060;1254;61203;-66
2023/03/07 02:19:36;;;;;;;40.40;19.30;;;;;;;16.24;29.36;99029.21;108057;1254;61250;-66
2023/03/07 02:22:12;;;;;;;38.90;19.60;;;;;;;16.59;28.93;99024.18;107911;1260;72643;-66
2023/03/07 02:25:11;;;;;;;40.30;19.00;;;;;;;16.81;28.62;99020.60;108020;1254;71419;-67
2023/03/07 02:27:39;;;;;;;38.70;20.30;;;;;;;16.83;28.52;99020.64;107875;1254;73871;-66
2023/03/07 02:30:09;;;;;;;38.30;19.00;;;;;;;16.72;28.55;99017.07;108018;1253;62753;-66
2023/03/07 02:32:37;;;;;;;42.30;20.30;;;;;;;16.52;28.81;99014.42;108007;1254;60025;-66
2023/03/07 02:35:17;;;;;;;35.20;17.90;;;;;;;16.21;29.23;99014.20;108143;1253;74325;-66
2023/03/07 02:37:49;;;;;;;40.40;20.30;;;;;;;16.05;29.52;99012.95;108083;1254;71605;-67
2023/03/07 02:40:19;;;;;;;39.00;19.60;;;;;;;16.51;28.90;99005.65;108069;1254;71793;-66
2023/03/07 02:42:47;;;;;;;43.60;20.20;;;;;;;16.76;28.47;99007.05;108132;1254;61729;-67
2023/03/07 02:45:16;;;;;;;41.40;20.90;;;;;;;16.87;28.48;99009.35;107949;1254;61487;-66
2023/03/07 02:47:44;;;;;;;45.40;23.00;;;;;;;16.93;28.29;99004.08;108190;1253;74212;-66
2023/03/07 02:50:16;;;;;;;40.00;20.20;;;;;;;16.96;28.27;99001.36;108129;1254;70318;-66
2023/03/07 02:52:48;;;;;;;45.00;21.20;;;;;;;16.95;28.28;98999.64;108147;1254;73259;-65
2023/03/07 02:55:16;;;;;;;40.70;20.10;;;;;;;16.61;28.56;98999.73;108110;1257;60332;-65
2023/03/07 02:57:49;;;;;;;43.70;20.40;;;;;;;16.53;28.66;98997.71;108186;1254;59619;-66
2023/03/07 03:00:18;;;;;;;36.10;19.50;;;;;;;16.84;28.28;98994.91;108090;1254;73759;-67
2023/03/07 03:02:46;;;;;;;43.70;19.60;;;;;;;16.94;28.17;98991.38;107979;1254;71437;-66
2023/03/07 03:05:14;;;;;;;39.10;17.70;;;;;;;17.06;28.12;98986.02;107978;1254;70765;-67
2023/03/07 03:07:45;;;;;;;43.60;21.30;;;;;;;17.06;27.97;98986.19;108056;1255;62422;-66
2023/03/07 03:10:13;;;;;;;40.80;21.90;;;;;;;16.59;28.50;98986.95;108038;1254;60786;-67
2023/03/07 03:12:43;;;;;;;47.60;23.20;;;;;;;16.51;28.50;98983.11;108040;1254;74914;-67
2023/03/07 03:15:11;;;;;;;52.70;23.40;;;;;;;16.29;28.82;98980.98;108089;1254;71578;-67
2023/03/07 03:17:41;;;;;;;52.10;23.00;;;;;;;16.31;28.86;98980.09;108063;1254;73947;-67
2023/03/07 03:20:11;;;;;;;45.60;22.10;;;;;;;16.20;28.99;98979.77;107978;1254;60160;-66
2023/03/07 03:22:40;;;;;;;44.40;23.10;;;;;;;16.19;28.99;98983.20;107959;1254;60332;-66
2023/03/07 03:25:10;;;;;;;43.10;22.10;;;;;;;15.87;29.37;98983.05;107967;1254;73518;-67
2023/03/07 03:27:39;;;;;;;40.50;19.70;;;;;;;15.93;29.30;98984.85;108069;1254;71364;-66
2023/03/07 03:30:09;;;;;;;39.20;19.00;;;;;;;15.94;29.31;98980.48;108045;1253;73293;-66
2023/03/07 03:32:47;;;;;;;42.30;21.20;;;;;;;15.93;29.31;98975.86;108095;1254;62380;-66
2023/03/07 03:35:16;;;;;;;46.00;23.50;;;;;;;16.13;28.89;98973.75;108098;1254;60466;-67
2023/03/07 03:37:44;;;;;;;49.60;23.40;;;;;;;16.12;28.98;98968.38;108058;1258;73136;-67
2023/03/07 03:40:16;;;;;;;49.30;24.60;;;;;;;15.61;29.59;98971.36;108058;1254;69793;-67
2023/03/07 03:42:45;;;;;;;46.40;22.70;;;;;;;15.67;29.72;98965.44;108069;1254;71996;-67
2023/03/07 03:45:14;;;;;;;51.60;23.60;;;;;;;15.59;29.80;98966.90;108112;1254;60852;-67
2023/03/07 03:47:42;;;;;;;47.60;23.50;;;;;;;15.71;29.60;98967.25;108090;1254;60294;-66
2023/03/07 03:50:15;;;;;;;54.50;24.20;;;;;;;15.89;29.40;98965.02;108072;1254;73972;-66
2023/03/07 03:52:44;;;;;;;46.10;22.50;;;;;;;15.93;29.34;98967.52;108139;1254;70918;-67
2023/03/07 03:55:12;;;;;;;50.80;25.30;;;;;;;15.85;29.37;98969.73;108167;1254;71397;-66
2023/03/07 03:57:42;;;;;;;46.90;22.10;;;;;;;15.79;29.56;98967.58;108062;1254;61427;-67
2023/03/07 04:00:13;;;;;;;57.50;26.40;;;;;;;16.02;29.29;98966.13;108159;1254;59069;-66
2023/03/07 04:02:41;;;;;;;45.90;22.90;;;;;;;16.02;29.30;98966.48;108080;1253;72904;-66
2023/03/07 04:05:10;;;;;;;47.90;22.30;;;;;;;15.65;29.75;98961.52;108173;1254;70990;-67
2023/03/07 04:07:40;;;;;;;31.60;15.50;;;;;;;15.80;29.55;98959.88;108141;1253;73771;-67
2023/03/07 04:10:09;;;;;;;46.20;22.30;;;;;;;15.52;29.89;98957.03;108084;1257;60360;-67
2023/03/07 04:12:40;;;;;;;43.80;22.60;;;;;;;15.90;29.43;98957.83;108029;1254;60428;-66
2023/03/07 04:15:11;;;;;;;53.80;26.00;;;;;;;16.01;29.23;98955.86;108167;1254;73139;-66
2023/03/07 04:17:40;;;;;;;58.40;24.30;;;;;;;15.98;29.25;98954.39;108192;1254;71683;-66
2023/03/07 04:20:16;;;;;;;50.40;23.20;;;;;;;15.86;29.34;98956.16;108080;1254;73540;-66
2023/03/07 04:22:45;;;;;;;51.30;24.10;;;;;;;15.81;29.51;98953.80;108067;1254;60524;-65
2023/03/07 04:25:13;;;;;;;47.00;22.20;;;;;;;15.99;29.18;98950.58;108037;1254;61064;-65
2023/03/07 04:27:41;;;;;;;50.80;19.90;;;;;;;15.92;29.25;98952.39;108055;1255;72139;-65
2023/03/07 04:30:10;;;;;;;47.20;23.00;;;;;;;15.96;29.23;98951.13;108063;1256;71262;-67
2023/03/07 04:32:41;;;;;;;52.70;25.30;;;;;;;16.03;29.13;98950.27;108054;1258;72784;-66
2023/03/07 04:35:09;;;;;;;51.90;23.00;;;;;;;15.65;29.42;98949.30;107834;1257;61631;-66
2023/03/07 04:37:39;;;;;;;46.90;22.90;;;;;;;15.76;29.49;98952.40;107951;1254;61649;-66
2023/03/07 04:40:08;;;;;;;48.80;22.80;;;;;;;15.77;29.56;98951.04;108040;1256;73058;-66
2023/03/07 04:42:36;;;;;;;46.70;22.70;;;;;;;15.96;29.35;98954.54;107985;1254;71619;-65
2023/03/07 04:45:05;;;;;;;46.00;24.40;;;;;;;15.67;29.64;98954.63;107919;1254;73239;-66
2023/03/07 04:47:34;;;;;;;53.70;25.80;;;;;;;15.52;29.73;98954.67;108040;1255;62389;-66
2023/03/07 04:50:02;;;;;;;50.90;23.60;;;;;;;15.75;29.52;98953.49;107963;1254;61019;-67
2023/03/07 04:52:32;;;;;;;49.00;24.10;;;;;;;15.96;29.22;98954.56;108074;1258;72983;-67
2023/03/07 04:55:01;;;;;;;50.20;23.30;;;;;;;16.26;28.85;98949.70;107879;1257;71319;-68
2023/03/07 04:57:29;;;;;;;46.40;22.30;;;;;;;16.40;28.76;98948.95;108120;1258;73673;-65
2023/03/07 04:59:58;;;;;;;48.90;23.10;;;;;;;16.77;28.36;98946.01;108057;1256;61433;-66
2023/03/07 05:02:27;;;;;;;47.50;21.90;;;;;;;17.09;27.93;98942.30;108072;1257;60667;-64
2023/03/07 05:04:56;;;;;;;47.60;22.00;;;;;;;17.04;27.87;98940.05;108028;1256;72773;-67
2023/03/07 05:07:26;;;;;;;40.40;20.40;;;;;;;16.97;27.92;98937.41;107906;1256;70848;-67
2023/03/07 05:09:54;;;;;;;46.60;21.90;;;;;;;16.92;27.99;98938.34;107983;1255;73074;-66
2023/03/07 05:12:26;;;;;;;54.90;24.70;;;;;;;16.94;27.97;98941.06;108003;1257;62112;-66
2023/03/07 05:14:55;;;;;;;51.20;22.70;;;;;;;17.01;27.86;98943.69;107995;1254;59142;-67
2023/03/07 05:17:23;;;;;;;45.20;21.60;;;;;;;17.00;27.82;98939.86;107933;1254;73529;-66
2023/03/07 05:19:54;;;;;;;48.30;22.20;;;;;;;16.76;28.01;98941.42;107901;1256;71283;-68
2023/03/07 05:22:41;;;;;;;43.00;20.90;;;;;;;17.01;27.88;98947.43;108023;1256;73298;-67
2023/03/07 05:25:11;;;;;;;47.80;22.00;;;;;;;17.43;27.41;98945.52;108044;1254;62408;-67
2023/03/07 05:27:40;;;;;;;41.20;21.00;;;;;;;17.60;27.20;98941.06;108114;1259;60440;-67
2023/03/07 05:30:10;;;;;;;43.80;20.10;;;;;;;17.77;27.05;98939.62;108101;1253;74823;-66
2023/03/07 05:32:39;;;;;;;43.50;20.80;;;;;;;17.99;26.67;98934.92;108006;1254;71608;-66
2023/03/07 05:35:09;;;;;;;40.80;19.80;;;;;;;17.96;26.71;98926.50;108035;1254;73799;-66
2023/03/07 05:37:38;;;;;;;39.00;18.80;;;;;;;17.71;26.93;98926.13;108199;1253;61424;-66
2023/03/07 05:40:09;;;;;;;42.50;19.90;;;;;;;17.91;26.69;98926.39;108098;1254;60944;-67
2023/03/07 05:42:39;;;;;;;45.20;20.50;;;;;;;18.06;26.51;98922.41;108179;1254;74827;-67
2023/03/07 05:45:08;;;;;;;36.60;18.50;;;;;;;17.82;26.52;98920.59;108100;1253;71264;-67
2023/03/07 05:47:37;;;;;;;43.00;21.00;;;;;;;17.49;26.86;98922.82;108103;1257;72898;-67
2023/03/07 05:50:10;;;;;;;39.00;19.30;;;;;;;17.48;27.06;98926.85;108158;1254;61987;-67
2023/03/07 05:52:40;;;;;;;44.90;22.20;;;;;;;17.68;26.83;98927.80;108081;1254;61292;-67
2023/03/07 05:55:10;;;;;;;45.60;22.70;;;;;;;18.14;26.44;98931.95;108125;1254;75074;-67
2023/03/07 05:57:38;;;;;;;47.50;23.20;;;;;;;17.97;26.59;98933.49;108143;1252;71231;-68
2023/03/07 06:00:07;;;;;;;52.10;22.80;;;;;;;17.92;26.65;98933.04;108033;1253;73230;-67
2023/03/07 06:02:41;;;;;;;44.10;22.70;;;;;;;17.93;26.76;98934.89;108121;1253;61354;-67
2023/03/07 06:05:11;;;;;;;52.00;24.10;;;;;;;18.39;26.32;98932.27;108200;1253;60306;-66
2023/03/07 06:07:42;;;;;;;52.10;23.10;;;;;;;18.40;26.20;98932.36;108123;1254;75141;-66
2023/03/07 06:10:13;;;;;;;51.20;24.70;;;;;;;17.86;26.65;98942.02;108022;1254;70361;-66
2023/03/07 06:12:41;;;;;;;48.50;20.20;;;;;;;18.06;26.61;98939.81;108113;1253;72057;-67
2023/03/07 06:15:17;;;;;;;51.60;22.80;;;;;;;17.97;26.49;98936.85;108014;1258;59090;-66
2023/03/07 06:17:46;;;;;;;61.00;24.50;;;;;;;17.94;26.73;98939.08;108024;1254;61432;-66
2023/03/07 06:20:15;;;;;;;49.00;19.90;;;;;;;18.01;26.73;98940.77;108168;1254;74179;-67
2023/03/07 06:22:43;;;;;;;42.50;21.10;;;;;;;17.59;27.21;98950.52;108038;1252;71217;-67
2023/03/07 06:25:11;;;;;;;42.60;20.00;;;;;;;17.71;27.36;98952.22;108101;1254;72216;-67
2023/03/07 06:27:40;;;;;;;45.10;21.20;;;;;;;18.05;26.85;98951.77;108056;1254;62241;-66
2023/03/07 06:30:11;;;;;;;42.10;20.70;;;;;;;17.19;27.89;98956.96;108047;1254;61412;-67
2023/03/07 06:32:40;;;;;;;40.50;17.90;;;;;;;17.39;28.23;98955.05;107965;1254;74384;-66
2023/03/07 06:35:11;;;;;;;46.60;20.30;;;;;;;18.00;27.95;98942.64;108051;1254;71251;-67
2023/03/07 06:37:40;;;;;;;41.70;21.00;;;;;;;18.14;28.58;98944.30;108058;1253;72698;-68
2023/03/07 06:40:09;;;;;;;44.80;22.00;;;;;;;18.05;28.97;98946.07;108108;1254;62626;-67
2023/03/07 06:42:38;;;;;;;39.30;18.90;;;;;;;17.61;30.04;98951.77;108089;1254;61025;-67
2023/03/07 06:45:07;;;;;;;42.10;20.20;;;;;;;17.27;30.85;98947.59;108138;1254;71634;-67
2023/03/07 06:47:35;;;;;;;44.80;21.90;;;;;;;17.89;30.17;98944.10;108077;1254;71577;-67
2023/03/07 06:50:05;;;;;;;41.20;18.60;;;;;;;18.02;30.19;98941.54;108129;1254;73184;-67
2023/03/07 06:52:33;;;;;;;41.90;20.30;;;;;;;17.64;31.11;98944.10;108025;1254;61932;-66
2023/03/07 06:55:04;;;;;;;46.20;20.90;;;;;;;17.86;31.01;98940.98;108233;1254;60651;-67
2023/03/07 06:57:34;;;;;;;40.10;18.90;;;;;;;17.86;31.26;98936.51;107975;1254;74039;-67
2023/03/07 07:00:06;;;;;;;46.00;20.30;;;;;;;18.23;30.71;98930.86;108182;1252;71349;-67
2023/03/07 07:02:34;;;;;;;44.20;19.10;;;;;;;17.40;32.04;98936.02;108132;1254;70497;-67
2023/03/07 07:05:05;;;;;;;45.90;22.30;;;;;;;17.35;32.21;98934.66;108151;1256;62404;-66
2023/03/07 07:07:34;;;;;;;51.40;24.80;;;;;;;17.87;31.49;98933.20;108172;1254;60492;-67
2023/03/07 07:10:03;;;;;;;41.50;20.50;;;;;;;17.89;31.52;98928.63;108157;1256;74463;-66
2023/03/07 07:12:32;;;;;;;47.20;22.80;;;;;;;17.58;32.09;98928.65;108181;1254;71205;-67
2023/03/07 07:15:03;;;;;;;47.80;22.30;;;;;;;17.71;31.99;98925.34;108109;1258;73655;-67
2023/03/07 07:17:34;;;;;;;40.70;21.00;;;;;;;17.57;32.31;98926.73;108029;1253;62439;-66
2023/03/07 07:20:10;;;;;;;45.00;22.00;;;;;;;17.73;32.11;98924.16;108129;1253;60620;-66
2023/03/07 07:22:40;;;;;;;44.70;19.50;;;;;;;17.65;32.39;98923.58;108156;1254;74808;-67
2023/03/07 07:25:09;;;;;;;37.70;19.50;;;;;;;17.16;33.43;98924.38;108177;1254;70503;-66
2023/03/07 07:27:37;;;;;;;41.80;22.20;;;;;;;17.59;32.59;98920.36;108021;1254;74176;-67
2023/03/07 07:30:06;;;;;;;42.10;20.40;;;;;;;17.24;33.24;98921.89;108012;1254;61886;-67
2023/03/07 07:32:40;;;;;;;47.50;22.20;;;;;;;16.73;34.12;98917.39;108068;1253;61058;-66
2023/03/07 07:35:09;;;;;;;41.20;21.70;;;;;;;17.04;33.84;98920.75;108139;1254;74932;-67
2023/03/07 07:37:40;;;;;;;45.00;22.30;;;;;;;17.42;33.35;98921.49;108038;1254;70447;-67
2023/03/07 07:40:11;;;;;;;44.10;23.00;;;;;;;17.18;33.67;98922.03;108020;1254;72669;-67
2023/03/07 07:42:39;;;;;;;45.40;23.30;;;;;;;17.21;33.65;98920.77;108033;1253;62143;-67
2023/03/07 07:45:23;;;;;;;43.70;22.20;;;;;;;16.98;34.01;98920.34;108082;1254;61122;-67
2023/03/07 07:47:57;;;;;;;44.60;22.50;;;;;;;17.45;33.35;98916.05;108032;1253;75456;-67
2023/03/07 07:50:26;;;;;;;43.30;21.40;;;;;;;17.42;33.49;98917.59;108069;1254;70717;-67
2023/03/07 07:53:00;;;;;;;43.50;22.40;;;;;;;17.22;33.73;98922.10;108111;1258;74001;-66
2023/03/07 07:55:29;;;;;;;48.10;24.00;;;;;;;17.26;33.75;98921.23;108086;1253;61438;-66
2023/03/07 07:57:57;;;;;;;45.20;23.20;;;;;;;17.19;33.87;98920.90;108066;1254;60424;-67
2023/03/07 08:00:25;;;;;;;46.50;24.40;;;;;;;17.28;33.72;98920.33;107992;1254;75143;-67
2023/03/07 08:02:53;;;;;;;49.50;26.00;;;;;;;16.95;34.28;98920.26;108021;1254;71392;-67
2023/03/07 08:05:22;;;;;;;52.60;27.00;;;;;;;17.35;33.88;98918.69;108026;1254;72203;-67
2023/03/07 08:07:51;;;;;;;60.90;29.50;;;;;;;17.50;33.59;98917.95;107966;1253;62471;-66
2023/03/07 08:10:20;;;;;;;49.40;25.80;;;;;;;17.88;33.08;98920.91;108044;1253;60361;-66
2023/03/07 08:12:51;;;;;;;53.40;28.50;;;;;;;17.98;32.87;98917.07;108007;1254;74972;-67
2023/03/07 08:15:20;;;;;;;53.60;26.40;;;;;;;17.84;32.99;98917.54;108014;1254;71112;-66
2023/03/07 08:17:52;;;;;;;56.60;27.60;;;;;;;17.82;33.17;98919.26;108002;1254;73708;-66
2023/03/07 08:20:22;;;;;;;57.40;30.20;;;;;;;18.54;32.31;98913.52;108080;1254;62408;-66
2023/03/07 08:22:51;;;;;;;58.30;30.40;;;;;;;18.73;32.00;98914.02;108096;1254;60337;-66
2023/03/07 08:25:21;;;;;;;54.30;25.70;;;;;;;18.83;31.98;98913.61;108061;1254;73245;-66
2023/03/07 08:27:54;;;;;;;56.90;28.60;;;;;;;18.67;31.97;98916.30;108093;1253;70481;-66
2023/03/07 08:30:25;;;;;;;51.70;26.10;;;;;;;18.79;31.95;98917.00;108200;1254;74004;-66
2023/03/07 08:33:00;;;;;;;50.60;25.10;;;;;;;18.68;32.07;98920.10;108230;1254;62172;-67
2023/03/07 08:35:29;;;;;;;50.80;25.50;;;;;;;19.05;31.57;98917.17;108169;1253;60905;-65
2023/03/07 08:37:58;;;;;;;48.40;24.90;;;;;;;19.17;31.53;98920.32;108082;1259;73592;-66
2023/03/07 08:40:27;;;;;;;50.00;26.70;;;;;;;19.43;31.07;98916.33;108157;1253;71288;-66
2023/03/07 08:42:57;;;;;;;49.70;27.20;;;;;;;19.08;31.63;98917.95;108127;1252;72706;-66
2023/03/07 08:45:26;;;;;;;39.20;22.10;;;;;;;18.87;31.94;98913.25;108129;1255;59692;-67
2023/03/07 08:47:54;;;;;;;39.30;21.60;;;;;;;18.93;32.08;98907.56;108137;1254;61085;-68
2023/03/07 08:50:24;;;;;;;45.60;23.00;;;;;;;19.21;31.86;98907.86;108140;1254;74292;-67
2023/03/07 08:52:53;;;;;;;38.60;21.40;;;;;;;19.30;31.72;98911.98;108154;1254;69532;-66
2023/03/07 08:55:22;;;;;;;48.30;25.10;;;;;;;19.91;30.98;98915.58;108108;1254;72847;-67
2023/03/07 08:57:50;;;;;;;41.90;21.90;;;;;;;20.04;30.86;98915.40;108164;1254;61201;-68
2023/03/07 09:00:18;;;;;;;47.00;25.50;;;;;;;19.58;31.10;98918.67;108132;1253;60327;-66
2023/03/07 09:02:46;;;;;;;41.70;23.10;;;;;;;19.93;30.84;98913.48;108218;1254;74800;-67
2023/03/07 09:05:15;;;;;;;46.90;23.70;;;;;;;19.61;31.21;98908.44;108206;1253;70621;-67
2023/03/07 09:07:43;;;;;;;43.10;24.10;;;;;;;19.73;30.82;98915.67;108200;1254;73006;-66
2023/03/07 09:10:13;;;;;;;44.60;24.50;;;;;;;19.96;30.91;98912.43;108178;1256;61269;-67
2023/03/07 09:12:41;;;;;;;42.90;24.30;;;;;;;19.76;31.06;98910.89;108192;1257;59832;-67
2023/03/07 09:15:10;;;;;;;49.40;27.10;;;;;;;19.65;31.07;98912.11;108171;1254;73735;-67
2023/03/07 09:17:39;;;;;;;42.70;24.40;;;;;;;19.61;31.56;98910.02;108128;1254;70403;-67
2023/03/07 09:20:08;;;;;;;48.60;26.80;;;;;;;20.00;31.21;98911.74;108050;1258;72178;-67
2023/03/07 09:22:37;;;;;;;43.90;24.70;;;;;;;20.19;31.34;98915.25;108131;1254;60521;-67
2023/03/07 09:25:05;;;;;;;44.60;23.60;;;;;;;20.31;31.35;98920.69;108145;1257;61195;-67
2023/03/07 09:27:33;;;;;;;46.30;25.10;;;;;;;20.36;30.69;98920.58;108167;1254;75002;-68
2023/03/07 09:30:01;;;;;;;42.60;23.20;;;;;;;20.23;30.98;98923.94;108116;1254;69620;-67
2023/03/07 09:32:32;;;;;;;45.40;25.60;;;;;;;20.47;30.46;98924.25;108190;1254;73831;-67
2023/03/07 09:35:01;;;;;;;42.60;24.70;;;;;;;20.27;30.44;98925.16;108185;1253;61560;-67
2023/03/07 09:37:30;;;;;;;45.00;24.70;;;;;;;20.50;30.73;98926.69;108260;1253;61330;-67
2023/03/07 09:40:00;;;;;;;43.10;23.90;;;;;;;20.46;30.26;98929.35;108168;1257;74927;-67
2023/03/07 09:42:43;;;;;;;39.10;22.80;;;;;;;20.69;30.23;98930.38;108161;1254;71693;-67
2023/03/07 09:45:33;;;;;;;37.00;21.40;;;;;;;21.18;30.06;98930.91;108046;1254;73413;-67
2023/03/07 09:48:39;;;;;;;42.60;21.60;;;;;;;21.58;29.36;98933.48;108125;1254;61420;-67
2023/03/07 09:51:15;;;;;;;40.70;22.60;;;;;;;22.24;29.54;98929.91;108178;1254;61237;-67
2023/03/07 09:53:44;;;;;;;34.20;20.80;;;;;;;23.45;30.14;98928.77;108092;1254;75095;-67
2023/03/07 09:56:36;;;;;;;32.70;18.80;;;;;;;24.09;28.85;98926.77;108289;1257;71155;-68
2023/03/07 09:59:38;;;;;;;32.90;19.10;;;;;;;24.19;27.00;98921.54;108234;1254;72652;-68
2023/03/07 10:02:33;;;;;;;25.70;15.80;;;;;;;24.08;26.69;98926.89;108180;1256;62065;-68
2023/03/07 10:05:07;;;;;;;30.70;17.30;;;;;;;23.58;26.81;98925.45;108230;1254;61667;-68
2023/03/07 10:07:35;;;;;;;27.40;17.60;;;;;;;23.34;26.17;98927.46;108192;1254;73664;-67
2023/03/07 10:10:36;;;;;;;24.70;17.00;;;;;;;23.08;26.36;98922.65;108237;1254;69914;-68
2023/03/07 10:13:18;;;;;;;25.80;15.80;;;;;;;22.57;26.34;98926.59;107560;1255;73002;-67
2023/03/07 10:15:49;;;;;;;26.00;16.90;;;;;;;22.49;26.13;98918.51;108200;1254;61422;-68
2023/03/07 10:18:28;;;;;;;26.50;16.30;;;;;;;22.05;26.41;98917.98;108176;1254;60409;-68
2023/03/07 10:21:11;;;;;;;25.90;16.30;;;;;;;21.28;27.15;98918.69;108196;1259;75288;-68
2023/03/07 10:24:18;;;;;;;29.40;17.80;;;;;;;21.52;26.86;98914.99;108181;1256;70452;-69
2023/03/07 10:27:09;;;;;;;30.50;18.00;;;;;;;21.89;27.20;98914.17;108001;1256;70674;-67
2023/03/07 10:29:46;;;;;;;33.00;17.30;;;;;;;22.93;27.49;98911.86;108050;1258;62267;-66
2023/03/07 10:32:24;;;;;;;29.90;18.70;;;;;;;23.58;26.49;98904.83;108020;1257;60319;-68
2023/03/07 10:35:01;;;;;;;29.20;16.80;;;;;;;24.46;26.00;98898.66;108101;1255;75044;-68
2023/03/07 10:37:55;;;;;;;26.10;16.80;;;;;;;24.61;24.86;98902.23;108052;1256;70551;-69
2023/03/07 10:40:33;;;;;;;26.90;17.20;;;;;;;25.11;23.89;98903.38;108031;1254;74133;-69
2023/03/07 10:43:01;;;;;;;26.00;15.80;;;;;;;25.07;23.37;98900.05;108045;1254;60409;-68
2023/03/07 10:45:34;;;;;;;25.00;16.20;;;;;;;25.01;23.41;98904.75;107944;1254;61565;-67
2023/03/07 10:48:07;;;;;;;26.20;15.70;;;;;;;24.70;23.17;98902.44;108049;1255;74156;-67
2023/03/07 10:50:41;;;;;;;24.10;15.40;;;;;;;24.30;23.07;98902.63;108061;1254;70616;-67
2023/03/07 10:53:20;;;;;;;23.20;15.70;;;;;;;24.38;23.45;98899.79;107952;1254;162769;-67
2023/03/07 10:57:05;;;;;;;26.50;16.00;;;;;;;20.44;28.13;98909.57;104906;1289;601054;-67
2023/03/07 10:59:33;;;;;;;26.40;15.40;;;;;;;22.75;24.83;98900.09;107319;1265;61234;-68
2023/03/07 11:02:04;;;;;;;28.50;15.40;;;;;;;22.60;25.16;98901.79;107340;1266;60349;-68
2023/03/07 11:04:43;;;;;;;23.20;14.90;;;;;;;23.01;24.49;98890.66;107316;1266;73464;-67
2023/03/07 11:07:27;;;;;;;24.60;15.20;;;;;;;23.93;23.91;98882.48;107314;1263;68767;-68
2023/03/07 11:09:56;;;;;;;21.60;12.90;;;;;;;24.46;23.40;98882.64;107143;1263;263074;-68
2023/03/07 11:12:28;;;;;;;23.30;15.30;;;;;;;24.97;22.60;98883.18;107467;1263;59801;-67
2023/03/07 11:15:03;;;;;;;23.70;14.30;;;;;;;25.75;22.61;98881.73;107515;1265;59918;-68
2023/03/07 11:17:47;;;;;;;25.10;13.90;;;;;;;25.91;21.48;98875.27;107480;1263;73801;-68
2023/03/07 11:20:29;;;;;;;20.80;14.30;;;;;;;26.13;21.05;98881.47;107425;1263;71433;-68
2023/03/07 11:23:18;;;;;;;23.60;15.20;;;;;;;26.31;20.76;98875.02;107494;1263;72458;-68
2023/03/07 11:25:46;;;;;;;22.20;14.40;;;;;;;26.19;20.64;98876.35;107434;1262;60046;-67
2023/03/07 11:28:30;;;;;;;23.70;14.70;;;;;;;26.00;20.53;98874.58;107446;1263;59740;-68
2023/03/07 11:31:34;;;;;;;20.60;14.70;;;;;;;25.26;20.69;98879.02;107437;1263;73982;-68